Buoy 33880

sailwx.info

Track history (hours):
 
Tides and Currents Weather Stations Pressure Air Temp Water Temp Dewpoint Dewpoint Depression Visibility Wind Speed Wind Dir Waves Ship Positions

Drifting buoy 33880

Last reported at 2016-May-06 04:00 UTC. Time now 2016-May-06 07:21 UTC.
Position S 47°23' W 059°52'.

Barometer 1024.6 mb
Water temperature 4.6 ° C

Date/timePositionNaut miles runAvg speedWind from/ knotsBaromVisibWave heightAir tempDewpointWater temp
2016-May-06 04:00S 47°23' W 059°52'2 0.3 1024.6 4.6
2016-May-05 20:00S 47°25' W 059°53'0 0.2 1022.6 4.7
2016-May-05 18:00S 47°25' W 059°52'3 0.7 1022.5 4.7
2016-May-05 14:00S 47°27' W 059°50'1 0.3 1022.8 4.7
2016-May-05 11:00S 47°28' W 059°50'1 0.2 1022.1 4.8
2016-May-05 07:00S 47°29' W 059°50'0 0.0 1021.3 5.4
2016-May-05 06:00S 47°29' W 059°50'0 0.5 1021.1 5.8
2016-May-05 05:00S 47°29' W 059°50'1 0.3 1021.0 5.1
2016-May-05 03:00S 47°29' W 059°50'0 0.0 1020.1 4.9
2016-May-05 02:00S 47°29' W 059°50'1 0.4 1019.6 5.0
2016-May-04 23:00S 47°29' W 059°48'2 0.7 1017.6 5.1
2016-May-04 20:00S 47°31' W 059°46'1 0.6 1014.1 5.2
2016-May-04 18:00S 47°32' W 059°47'3 0.6 1012.0 5.2
2016-May-04 13:00S 47°35' W 059°46'2 0.3 1009.5 5.0
2016-May-04 04:00S 47°37' W 059°45'2 0.8 1009.3 5.7
2016-May-04 01:00S 47°39' W 059°44'0 0.2 1008.7 5.0
2016-May-04 00:00S 47°39' W 059°44'0 0.3 1008.4 4.9
2016-May-03 23:00S 47°40' W 059°44'1 0.3 1008.3 4.8
2016-May-03 20:00S 47°40' W 059°43'0 0.2 1010.0 4.9
2016-May-03 19:00S 47°40' W 059°42'2 0.3 1011.0 4.9
2016-May-03 13:00S 47°42' W 059°42'1 0.9 1017.7 4.9
2016-May-03 12:00S 47°42' W 059°44'1 0.4 1018.1 4.8
2016-May-03 10:00S 47°42' W 059°42'1 0.2 1019.4 4.5
2016-May-03 07:00S 47°43' W 059°42'0 0.1 1021.7 4.5
2016-May-03 05:00S 47°43' W 059°42'0 0.0 1023.1 4.5
2016-May-03 04:00S 47°43' W 059°42'1 0.7 1023.2 4.5
2016-May-03 02:00S 47°45' W 059°42'0 0.4 1023.5 4.6
2016-May-03 01:00S 47°45' W 059°42'1 0.4 1023.6 4.6
2016-May-02 23:00S 47°46' W 059°43'0 0.3 1023.5 4.8
2016-May-02 22:00S 47°45' W 059°42'1 0.5 1023.3 4.7
2016-May-02 19:00S 47°45' W 059°40'2 1.1 1022.0 4.9
2016-May-02 17:00S 47°48' W 059°40'2 0.3 1021.0 4.9
2016-May-02 11:00S 47°50' W 059°40'7 0.5 1017.6 4.9
2016-May-01 21:00S 47°56' W 059°34'1 0.6 1010.2 4.9
2016-May-01 20:00S 47°56' W 059°34'0 0.4 1009.6 4.9
2016-May-01 19:00S 47°56' W 059°34'1 0.7 1009.3 4.9
2016-May-01 18:00S 47°56' W 059°33'0 0.0 1009.1 4.9
2016-May-01 17:00S 47°56' W 059°33'1 0.4 1009.1 5.0
2016-May-01 14:00S 47°56' W 059°32'1 0.7 1007.9 5.1
2016-May-01 13:00S 47°57' W 059°31'1 0.6 1007.2 5.1
2016-May-01 11:00S 47°58' W 059°30'0 0.5 1005.5 4.8
2016-May-01 10:00S 47°58' W 059°31'1 0.4 1005.0 4.9
2016-May-01 08:00S 47°59' W 059°30'0 0.4 1004.6 4.9
2016-May-01 07:00S 47°59' W 059°30'1 0.3 1004.5 4.9
2016-May-01 05:00S 47°59' W 059°30'1 0.4 1004.8 5.0
2016-May-01 02:00S 48°00' W 059°29'1 0.3 1006.2 5.1
2016-May-01 00:00S 48°01' W 059°29'1 0.4 1006.4 5.6
2016-Apr-30 22:00S 48°01' W 059°30'1 0.7 1007.7 5.1
2016-Apr-30 21:00S 48°02' W 059°29'0 0.0 1008.1 5.8
2016-Apr-30 20:00S 48°02' W 059°29'1 0.6 1008.8 5.4
2016-Apr-30 19:00S 48°02' W 059°30'1 0.3 1009.6 5.1
2016-Apr-30 17:00S 48°01' W 059°29'1 0.2 1011.7 5.0
2016-Apr-30 12:00S 48°02' W 059°29'1 0.4 1015.9 4.9
2016-Apr-30 10:00S 48°03' W 059°29'1 0.5 1016.5 4.8
2016-Apr-30 08:00S 48°04' W 059°29'1 0.8 1017.5 4.8
2016-Apr-30 07:00S 48°05' W 059°30'0 0.0 1018.2 4.9
2016-Apr-30 05:00S 48°05' W 059°30'2 0.4 1019.4 4.9
2016-Apr-30 01:00S 48°06' W 059°30'1 1.0 1020.8 4.9
2016-Apr-30 00:00S 48°07' W 059°30'0 0.0 1021.0 4.9
2016-Apr-29 23:00S 48°07' W 059°30'1 0.2 1021.4 5.0
2016-Apr-29 19:00S 48°08' W 059°31'1 1.2 1021.6 5.0
2016-Apr-29 18:00S 48°08' W 059°29'0 0.0 1021.4 5.0
2016-Apr-29 17:00S 48°08' W 059°29'1 0.5 1021.7 5.4
2016-Apr-29 14:00S 48°09' W 059°28'0 0.4 1021.8 5.6
2016-Apr-29 13:00S 48°10' W 059°28'1 0.6 1021.7 5.6
2016-Apr-29 11:00S 48°11' W 059°28'1 0.2 1021.8 6.5
2016-Apr-29 07:00S 48°11' W 059°28'2 0.5 1021.6 5.6
2016-Apr-29 04:00S 48°12' W 059°26'4 0.8 1021.5 6.5
2016-Apr-28 23:00S 48°15' W 059°22'2 0.5 1019.9 6.5
2016-Apr-28 20:00S 48°16' W 059°23'0 0.0 1017.8 6.0
2016-Apr-28 18:00S 48°16' W 059°23'3 0.6 1016.2 6.6
2016-Apr-28 13:00S 48°16' W 059°18'5 1.3 1013.8 6.6
2016-Apr-28 09:00S 48°21' W 059°13'0 0.0 1010.1 6.7
2016-Apr-28 06:00S 48°21' W 059°13'2 1.0 1009.4 5.1
2016-Apr-28 04:00S 48°22' W 059°15'0 0.2 1010.2 5.1
2016-Apr-28 02:00S 48°22' W 059°16'1 0.3 1012.7 5.2
2016-Apr-27 23:00S 48°22' W 059°17'0 0.0 1015.4 5.2
2016-Apr-27 20:00S 48°22' W 059°17'0 0.1 1017.9 5.1
2016-Apr-27 19:00S 48°22' W 059°17'0 0.2 1018.7 5.1
2016-Apr-27 18:00S 48°22' W 059°16'3 0.4 1019.3 5.2
2016-Apr-27 12:00S 48°24' W 059°15'0 0.1 1023.2 5.1
2016-Apr-27 10:00S 48°25' W 059°15'1 0.3 1023.9 5.7
2016-Apr-27 07:00S 48°25' W 059°16'0 0.3 1024.5 5.2
2016-Apr-27 06:00S 48°25' W 059°16'1 0.6 1024.8 5.2
2016-Apr-27 05:00S 48°25' W 059°15'2 0.3 1025.1 5.2
2016-Apr-26 23:00S 48°26' W 059°13'2 0.8 1025.8 5.8
2016-Apr-26 21:00S 48°27' W 059°12'0 0.3 1025.6 6.0
2016-Apr-26 20:00S 48°27' W 059°13'1 0.8 1025.6 5.6
2016-Apr-26 19:00S 48°28' W 059°14'2 1.6 1025.6 6.1
2016-Apr-26 18:00S 48°26' W 059°14'1 0.3 1025.6 5.9
2016-Apr-26 14:00S 48°26' W 059°13'1 1.0 1026.2 5.3
2016-Apr-26 13:00S 48°26' W 059°14'3 0.6 1026.1 5.6
2016-Apr-26 09:00S 48°27' W 059°11'0 0.2 1025.2 6.6
2016-Apr-26 08:00S 48°27' W 059°11'1 1.1 1024.5 6.6
2016-Apr-26 07:00S 48°28' W 059°10'0 0.1 1024.6 6.7
2016-Apr-26 06:00S 48°28' W 059°10'   1024.7 6.6
Track history (hours):
 
Tides and Currents Weather Stations Pressure Air Temp Water Temp Dewpoint Dewpoint Depression Visibility Wind Speed Wind Dir Waves Ship Positions

Drifting buoy 33880

Last reported at 2016-May-06 04:00 UTC. Time now 2016-May-06 07:21 UTC.
Position S 47°23' W 059°52'.

Barometer 1024.6 mb
Water temperature 4.6 ° C

Date/timePositionNaut miles runAvg speedWind from/ knotsBaromVisibWave heightAir tempDewpointWater temp
2016-May-06 04:00S 47°23' W 059°52'2 0.3 1024.6 4.6
2016-May-05 20:00S 47°25' W 059°53'0 0.2 1022.6 4.7
2016-May-05 18:00S 47°25' W 059°52'3 0.7 1022.5 4.7
2016-May-05 14:00S 47°27' W 059°50'1 0.3 1022.8 4.7
2016-May-05 11:00S 47°28' W 059°50'1 0.2 1022.1 4.8
2016-May-05 07:00S 47°29' W 059°50'0 0.0 1021.3 5.4
2016-May-05 06:00S 47°29' W 059°50'0 0.5 1021.1 5.8
2016-May-05 05:00S 47°29' W 059°50'1 0.3 1021.0 5.1
2016-May-05 03:00S 47°29' W 059°50'0 0.0 1020.1 4.9
2016-May-05 02:00S 47°29' W 059°50'1 0.4 1019.6 5.0
2016-May-04 23:00S 47°29' W 059°48'2 0.7 1017.6 5.1
2016-May-04 20:00S 47°31' W 059°46'1 0.6 1014.1 5.2
2016-May-04 18:00S 47°32' W 059°47'3 0.6 1012.0 5.2
2016-May-04 13:00S 47°35' W 059°46'2 0.3 1009.5 5.0
2016-May-04 04:00S 47°37' W 059°45'2 0.8 1009.3 5.7
2016-May-04 01:00S 47°39' W 059°44'0 0.2 1008.7 5.0
2016-May-04 00:00S 47°39' W 059°44'0 0.3 1008.4 4.9
2016-May-03 23:00S 47°40' W 059°44'1 0.3 1008.3 4.8
2016-May-03 20:00S 47°40' W 059°43'0 0.2 1010.0 4.9
2016-May-03 19:00S 47°40' W 059°42'2 0.3 1011.0 4.9
2016-May-03 13:00S 47°42' W 059°42'1 0.9 1017.7 4.9
2016-May-03 12:00S 47°42' W 059°44'1 0.4 1018.1 4.8
2016-May-03 10:00S 47°42' W 059°42'1 0.2 1019.4 4.5
2016-May-03 07:00S 47°43' W 059°42'0 0.1 1021.7 4.5
2016-May-03 05:00S 47°43' W 059°42'0 0.0 1023.1 4.5
2016-May-03 04:00S 47°43' W 059°42'1 0.7 1023.2 4.5
2016-May-03 02:00S 47°45' W 059°42'0 0.4 1023.5 4.6
2016-May-03 01:00S 47°45' W 059°42'1 0.4 1023.6 4.6
2016-May-02 23:00S 47°46' W 059°43'0 0.3 1023.5 4.8
2016-May-02 22:00S 47°45' W 059°42'1 0.5 1023.3 4.7
2016-May-02 19:00S 47°45' W 059°40'2 1.1 1022.0 4.9
2016-May-02 17:00S 47°48' W 059°40'2 0.3 1021.0 4.9
2016-May-02 11:00S 47°50' W 059°40'7 0.5 1017.6 4.9
2016-May-01 21:00S 47°56' W 059°34'1 0.6 1010.2 4.9
2016-May-01 20:00S 47°56' W 059°34'0 0.4 1009.6 4.9
2016-May-01 19:00S 47°56' W 059°34'1 0.7 1009.3 4.9
2016-May-01 18:00S 47°56' W 059°33'0 0.0 1009.1 4.9
2016-May-01 17:00S 47°56' W 059°33'1 0.4 1009.1 5.0
2016-May-01 14:00S 47°56' W 059°32'1 0.7 1007.9 5.1
2016-May-01 13:00S 47°57' W 059°31'1 0.6 1007.2 5.1
2016-May-01 11:00S 47°58' W 059°30'0 0.5 1005.5 4.8
2016-May-01 10:00S 47°58' W 059°31'1 0.4 1005.0 4.9
2016-May-01 08:00S 47°59' W 059°30'0 0.4 1004.6 4.9
2016-May-01 07:00S 47°59' W 059°30'1 0.3 1004.5 4.9
2016-May-01 05:00S 47°59' W 059°30'1 0.4 1004.8 5.0
2016-May-01 02:00S 48°00' W 059°29'1 0.3 1006.2 5.1
2016-May-01 00:00S 48°01' W 059°29'1 0.4 1006.4 5.6
2016-Apr-30 22:00S 48°01' W 059°30'1 0.7 1007.7 5.1
2016-Apr-30 21:00S 48°02' W 059°29'0 0.0 1008.1 5.8
2016-Apr-30 20:00S 48°02' W 059°29'1 0.6 1008.8 5.4
2016-Apr-30 19:00S 48°02' W 059°30'1 0.3 1009.6 5.1
2016-Apr-30 17:00S 48°01' W 059°29'1 0.2 1011.7 5.0
2016-Apr-30 12:00S 48°02' W 059°29'1 0.4 1015.9 4.9
2016-Apr-30 10:00S 48°03' W 059°29'1 0.5 1016.5 4.8
2016-Apr-30 08:00S 48°04' W 059°29'1 0.8 1017.5 4.8
2016-Apr-30 07:00S 48°05' W 059°30'0 0.0 1018.2 4.9
2016-Apr-30 05:00S 48°05' W 059°30'2 0.4 1019.4 4.9
2016-Apr-30 01:00S 48°06' W 059°30'1 1.0 1020.8 4.9
2016-Apr-30 00:00S 48°07' W 059°30'0 0.0 1021.0 4.9
2016-Apr-29 23:00S 48°07' W 059°30'1 0.2 1021.4 5.0
2016-Apr-29 19:00S 48°08' W 059°31'1 1.2 1021.6 5.0
2016-Apr-29 18:00S 48°08' W 059°29'0 0.0 1021.4 5.0
2016-Apr-29 17:00S 48°08' W 059°29'1 0.5 1021.7 5.4
2016-Apr-29 14:00S 48°09' W 059°28'0 0.4 1021.8 5.6
2016-Apr-29 13:00S 48°10' W 059°28'1 0.6 1021.7 5.6
2016-Apr-29 11:00S 48°11' W 059°28'1 0.2 1021.8 6.5
2016-Apr-29 07:00S 48°11' W 059°28'2 0.5 1021.6 5.6
2016-Apr-29 04:00S 48°12' W 059°26'4 0.8 1021.5 6.5
2016-Apr-28 23:00S 48°15' W 059°22'2 0.5 1019.9 6.5
2016-Apr-28 20:00S 48°16' W 059°23'0 0.0 1017.8 6.0
2016-Apr-28 18:00S 48°16' W 059°23'3 0.6 1016.2 6.6
2016-Apr-28 13:00S 48°16' W 059°18'5 1.3 1013.8 6.6
2016-Apr-28 09:00S 48°21' W 059°13'0 0.0 1010.1 6.7
2016-Apr-28 06:00S 48°21' W 059°13'2 1.0 1009.4 5.1
2016-Apr-28 04:00S 48°22' W 059°15'0 0.2 1010.2 5.1
2016-Apr-28 02:00S 48°22' W 059°16'1 0.3 1012.7 5.2
2016-Apr-27 23:00S 48°22' W 059°17'0 0.0 1015.4 5.2
2016-Apr-27 20:00S 48°22' W 059°17'0 0.1 1017.9 5.1
2016-Apr-27 19:00S 48°22' W 059°17'0 0.2 1018.7 5.1
2016-Apr-27 18:00S 48°22' W 059°16'3 0.4 1019.3 5.2
2016-Apr-27 12:00S 48°24' W 059°15'0 0.1 1023.2 5.1
2016-Apr-27 10:00S 48°25' W 059°15'1 0.3 1023.9 5.7
2016-Apr-27 07:00S 48°25' W 059°16'0 0.3 1024.5 5.2
2016-Apr-27 06:00S 48°25' W 059°16'1 0.6 1024.8 5.2
2016-Apr-27 05:00S 48°25' W 059°15'2 0.3 1025.1 5.2
2016-Apr-26 23:00S 48°26' W 059°13'2 0.8 1025.8 5.8
2016-Apr-26 21:00S 48°27' W 059°12'0 0.3 1025.6 6.0
2016-Apr-26 20:00S 48°27' W 059°13'1 0.8 1025.6 5.6
2016-Apr-26 19:00S 48°28' W 059°14'2 1.6 1025.6 6.1
2016-Apr-26 18:00S 48°26' W 059°14'1 0.3 1025.6 5.9
2016-Apr-26 14:00S 48°26' W 059°13'1 1.0 1026.2 5.3
2016-Apr-26 13:00S 48°26' W 059°14'3 0.6 1026.1 5.6
2016-Apr-26 09:00S 48°27' W 059°11'0 0.2 1025.2 6.6
2016-Apr-26 08:00S 48°27' W 059°11'1 1.1 1024.5 6.6
2016-Apr-26 07:00S 48°28' W 059°10'0 0.1 1024.6 6.7
2016-Apr-26 06:00S 48°28' W 059°10'   1024.7 6.6

Dump ship's entire track history